sensor_id;sensor_type;location;lat;lon;timestamp;temperature;humidity
3268;DHT22;1646;52.450;13.326;2022-08-19T00:03:34;23.80;99.90
3268;DHT22;1646;52.450;13.326;2022-08-19T00:08:33;23.80;99.90
3268;DHT22;1646;52.450;13.326;2022-08-19T00:13:31;23.70;99.90
3268;DHT22;1646;52.450;13.326;2022-08-19T00:18:29;23.70;99.90
3268;DHT22;1646;52.450;13.326;2022-08-19T00:23:29;23.70;99.90
3268;DHT22;1646;52.450;13.326;2022-08-19T00:28:30;23.70;99.90
3268;DHT22;1646;52.450;13.326;2022-08-19T00:33:32;23.70;99.90
3268;DHT22;1646;52.450;13.326;2022-08-19T00:38:32;23.80;99.90
3268;DHT22;1646;52.450;13.326;2022-08-19T00:43:33;23.80;99.90
3268;DHT22;1646;52.450;13.326;2022-08-19T00:48:32;23.70;99.90
3268;DHT22;1646;52.450;13.326;2022-08-19T00:53:32;23.70;99.90
3268;DHT22;1646;52.450;13.326;2022-08-19T00:58:33;23.70;99.90
3268;DHT22;1646;52.450;13.326;2022-08-19T01:03:32;23.70;99.90
3268;DHT22;1646;52.450;13.326;2022-08-19T01:08:51;23.70;99.90
3268;DHT22;1646;52.450;13.326;2022-08-19T01:13:50;23.70;99.90
3268;DHT22;1646;52.450;13.326;2022-08-19T01:18:50;23.80;99.90
3268;DHT22;1646;52.450;13.326;2022-08-19T01:23:49;23.80;99.90
3268;DHT22;1646;52.450;13.326;2022-08-19T01:28:50;23.80;99.90
3268;DHT22;1646;52.450;13.326;2022-08-19T01:33:50;23.80;99.90
3268;DHT22;1646;52.450;13.326;2022-08-19T01:38:52;23.70;99.90
3268;DHT22;1646;52.450;13.326;2022-08-19T01:43:52;23.70;99.90
3268;DHT22;1646;52.450;13.326;2022-08-19T01:49:10;23.70;99.90
3268;DHT22;1646;52.450;13.326;2022-08-19T01:54:13;23.60;99.90
3268;DHT22;1646;52.450;13.326;2022-08-19T01:59:24;23.40;99.90
3268;DHT22;1646;52.450;13.326;2022-08-19T02:04:22;23.40;99.90
3268;DHT22;1646;52.450;13.326;2022-08-19T02:09:23;23.40;99.90
3268;DHT22;1646;52.450;13.326;2022-08-19T02:14:21;23.40;99.90
3268;DHT22;1646;52.450;13.326;2022-08-19T02:19:19;23.30;99.90
3268;DHT22;1646;52.450;13.326;2022-08-19T02:24:17;23.00;99.90
3268;DHT22;1646;52.450;13.326;2022-08-19T02:29:17;22.80;99.90
3268;DHT22;1646;52.450;13.326;2022-08-19T02:34:15;22.70;99.90
3268;DHT22;1646;52.450;13.326;2022-08-19T02:39:13;22.60;99.90
3268;DHT22;1646;52.450;13.326;2022-08-19T02:44:11;22.60;99.90
3268;DHT22;1646;52.450;13.326;2022-08-19T02:49:28;22.60;99.90
3268;DHT22;1646;52.450;13.326;2022-08-19T02:54:30;22.60;99.90
3268;DHT22;1646;52.450;13.326;2022-08-19T02:59:30;22.60;99.90
3268;DHT22;1646;52.450;13.326;2022-08-19T03:04:29;22.70;99.90
3268;DHT22;1646;52.450;13.326;2022-08-19T03:09:28;22.80;99.90
3268;DHT22;1646;52.450;13.326;2022-08-19T03:14:26;22.80;99.90
3268;DHT22;1646;52.450;13.326;2022-08-19T03:19:29;22.80;99.90
3268;DHT22;1646;52.450;13.326;2022-08-19T03:24:28;22.80;99.90
3268;DHT22;1646;52.450;13.326;2022-08-19T03:29:28;22.70;99.90
3268;DHT22;1646;52.450;13.326;2022-08-19T03:34:31;22.80;99.90
3268;DHT22;1646;52.450;13.326;2022-08-19T03:39:30;22.70;99.90
3268;DHT22;1646;52.450;13.326;2022-08-19T03:44:30;22.70;99.90
3268;DHT22;1646;52.450;13.326;2022-08-19T03:49:32;22.70;99.90
3268;DHT22;1646;52.450;13.326;2022-08-19T03:54:32;22.70;99.90
3268;DHT22;1646;52.450;13.326;2022-08-19T03:59:32;22.70;99.90
3268;DHT22;1646;52.450;13.326;2022-08-19T04:04:33;22.70;99.90
3268;DHT22;1646;52.450;13.326;2022-08-19T04:09:33;22.80;99.90
3268;DHT22;1646;52.450;13.326;2022-08-19T04:14:33;22.70;99.90
3268;DHT22;1646;52.450;13.326;2022-08-19T04:19:34;22.60;99.90
3268;DHT22;1646;52.450;13.326;2022-08-19T04:24:33;22.60;99.90
3268;DHT22;1646;52.450;13.326;2022-08-19T04:29:32;22.60;99.90
3268;DHT22;1646;52.450;13.326;2022-08-19T04:34:30;22.60;99.90
3268;DHT22;1646;52.450;13.326;2022-08-19T04:39:30;22.70;99.90
3268;DHT22;1646;52.450;13.326;2022-08-19T04:44:46;22.80;99.90
3268;DHT22;1646;52.450;13.326;2022-08-19T04:49:44;22.80;99.90
3268;DHT22;1646;52.450;13.326;2022-08-19T04:54:44;22.80;99.90
3268;DHT22;1646;52.450;13.326;2022-08-19T04:59:42;22.90;99.90
3268;DHT22;1646;52.450;13.326;2022-08-19T05:04:40;23.10;99.90
3268;DHT22;1646;52.450;13.326;2022-08-19T05:09:39;23.20;99.90
3268;DHT22;1646;52.450;13.326;2022-08-19T05:14:56;23.30;99.90
3268;DHT22;1646;52.450;13.326;2022-08-19T05:19:55;23.30;99.90
3268;DHT22;1646;52.450;13.326;2022-08-19T05:25:13;23.40;99.90
3268;DHT22;1646;52.450;13.326;2022-08-19T05:30:13;23.50;99.90
3268;DHT22;1646;52.450;13.326;2022-08-19T05:35:11;23.60;99.90
3268;DHT22;1646;52.450;13.326;2022-08-19T05:40:10;23.80;99.90
3268;DHT22;1646;52.450;13.326;2022-08-19T05:45:09;23.80;99.90
3268;DHT22;1646;52.450;13.326;2022-08-19T05:50:10;23.80;99.90
3268;DHT22;1646;52.450;13.326;2022-08-19T05:55:09;23.80;99.90
3268;DHT22;1646;52.450;13.326;2022-08-19T06:00:08;23.80;99.90
3268;DHT22;1646;52.450;13.326;2022-08-19T06:05:10;23.90;99.90
3268;DHT22;1646;52.450;13.326;2022-08-19T06:10:10;24.00;99.90
3268;DHT22;1646;52.450;13.326;2022-08-19T06:15:10;24.10;99.90
3268;DHT22;1646;52.450;13.326;2022-08-19T06:20:13;24.20;99.90
3268;DHT22;1646;52.450;13.326;2022-08-19T06:25:12;24.30;99.90
3268;DHT22;1646;52.450;13.326;2022-08-19T06:30:11;24.40;99.90
3268;DHT22;1646;52.450;13.326;2022-08-19T06:35:11;24.60;99.90
3268;DHT22;1646;52.450;13.326;2022-08-19T06:40:11;24.60;99.90
3268;DHT22;1646;52.450;13.326;2022-08-19T06:45:10;24.60;99.90
3268;DHT22;1646;52.450;13.326;2022-08-19T06:50:08;24.50;99.90
3268;DHT22;1646;52.450;13.326;2022-08-19T06:55:08;24.30;99.90
3268;DHT22;1646;52.450;13.326;2022-08-19T07:00:07;24.30;99.90
3268;DHT22;1646;52.450;13.326;2022-08-19T07:05:09;24.40;99.90
3268;DHT22;1646;52.450;13.326;2022-08-19T07:10:10;24.50;99.90
3268;DHT22;1646;52.450;13.326;2022-08-19T07:15:09;24.80;99.90
3268;DHT22;1646;52.450;13.326;2022-08-19T07:20:08;24.90;99.90
3268;DHT22;1646;52.450;13.326;2022-08-19T07:25:08;24.90;99.90
3268;DHT22;1646;52.450;13.326;2022-08-19T07:30:09;25.10;99.90
3268;DHT22;1646;52.450;13.326;2022-08-19T07:35:10;25.20;99.90
3268;DHT22;1646;52.450;13.326;2022-08-19T07:40:08;25.20;99.90
3268;DHT22;1646;52.450;13.326;2022-08-19T07:45:09;25.10;99.90
3268;DHT22;1646;52.450;13.326;2022-08-19T07:50:09;24.90;99.90
3268;DHT22;1646;52.450;13.326;2022-08-19T07:55:09;25.00;99.90
3268;DHT22;1646;52.450;13.326;2022-08-19T08:00:29;25.10;99.90
3268;DHT22;1646;52.450;13.326;2022-08-19T08:05:27;24.90;99.90
3268;DHT22;1646;52.450;13.326;2022-08-19T08:10:42;24.80;99.90
3268;DHT22;1646;52.450;13.326;2022-08-19T08:15:54;24.80;99.90
3268;DHT22;1646;52.450;13.326;2022-08-19T08:20:52;24.70;99.90
3268;DHT22;1646;52.450;13.326;2022-08-19T08:25:50;24.70;99.90
3268;DHT22;1646;52.450;13.326;2022-08-19T08:30:50;24.70;99.90
3268;DHT22;1646;52.450;13.326;2022-08-19T08:35:49;24.80;99.90
3268;DHT22;1646;52.450;13.326;2022-08-19T08:40:52;24.80;99.90
3268;DHT22;1646;52.450;13.326;2022-08-19T08:45:56;24.70;99.90
3268;DHT22;1646;52.450;13.326;2022-08-19T08:50:59;24.60;99.90
3268;DHT22;1646;52.450;13.326;2022-08-19T08:56:03;24.60;99.90
3268;DHT22;1646;52.450;13.326;2022-08-19T09:01:02;24.60;99.90
3268;DHT22;1646;52.450;13.326;2022-08-19T09:06:03;24.50;99.90
3268;DHT22;1646;52.450;13.326;2022-08-19T09:11:10;24.50;99.90
3268;DHT22;1646;52.450;13.326;2022-08-19T09:16:30;24.60;99.90
3268;DHT22;1646;52.450;13.326;2022-08-19T09:21:29;24.60;99.90
3268;DHT22;1646;52.450;13.326;2022-08-19T09:26:31;24.60;99.90
3268;DHT22;1646;52.450;13.326;2022-08-19T09:31:48;24.60;99.90
3268;DHT22;1646;52.450;13.326;2022-08-19T09:36:48;24.70;99.90
3268;DHT22;1646;52.450;13.326;2022-08-19T09:41:50;24.60;99.90
3268;DHT22;1646;52.450;13.326;2022-08-19T09:46:49;24.70;99.90
3268;DHT22;1646;52.450;13.326;2022-08-19T09:51:51;25.00;99.90
3268;DHT22;1646;52.450;13.326;2022-08-19T09:56:52;25.10;99.90
3268;DHT22;1646;52.450;13.326;2022-08-19T10:01:51;25.10;99.90
3268;DHT22;1646;52.450;13.326;2022-08-19T10:06:50;25.00;99.90
3268;DHT22;1646;52.450;13.326;2022-08-19T10:11:51;24.90;99.90
3268;DHT22;1646;52.450;13.326;2022-08-19T10:16:50;24.80;99.90
3268;DHT22;1646;52.450;13.326;2022-08-19T10:21:50;24.70;99.90
3268;DHT22;1646;52.450;13.326;2022-08-19T10:26:48;24.70;99.90
3268;DHT22;1646;52.450;13.326;2022-08-19T10:31:54;24.90;99.90
3268;DHT22;1646;52.450;13.326;2022-08-19T10:37:00;24.90;99.90
3268;DHT22;1646;52.450;13.326;2022-08-19T10:41:58;24.90;99.90
3268;DHT22;1646;52.450;13.326;2022-08-19T10:46:56;25.00;99.90
3268;DHT22;1646;52.450;13.326;2022-08-19T10:51:56;24.80;99.90
3268;DHT22;1646;52.450;13.326;2022-08-19T10:57:19;24.80;99.90
3268;DHT22;1646;52.450;13.326;2022-08-19T11:02:32;24.70;99.90
3268;DHT22;1646;52.450;13.326;2022-08-19T11:07:30;24.70;99.90
3268;DHT22;1646;52.450;13.326;2022-08-19T11:12:30;24.70;99.90
3268;DHT22;1646;52.450;13.326;2022-08-19T11:17:29;24.70;99.90
3268;DHT22;1646;52.450;13.326;2022-08-19T11:22:28;24.60;99.90
3268;DHT22;1646;52.450;13.326;2022-08-19T11:27:39;24.50;99.90
3268;DHT22;1646;52.450;13.326;2022-08-19T11:32:39;24.50;99.90
3268;DHT22;1646;52.450;13.326;2022-08-19T11:37:44;24.60;99.90
3268;DHT22;1646;52.450;13.326;2022-08-19T11:42:43;24.50;99.90
3268;DHT22;1646;52.450;13.326;2022-08-19T11:47:54;24.50;99.90
3268;DHT22;1646;52.450;13.326;2022-08-19T11:52:54;24.70;99.90
3268;DHT22;1646;52.450;13.326;2022-08-19T11:57:54;24.80;99.90
3268;DHT22;1646;52.450;13.326;2022-08-19T12:02:52;24.80;99.90
3268;DHT22;1646;52.450;13.326;2022-08-19T12:07:51;24.70;99.90
3268;DHT22;1646;52.450;13.326;2022-08-19T12:12:51;24.80;99.90
3268;DHT22;1646;52.450;13.326;2022-08-19T12:17:57;24.90;99.90
3268;DHT22;1646;52.450;13.326;2022-08-19T12:22:55;25.00;99.90
3268;DHT22;1646;52.450;13.326;2022-08-19T12:27:53;24.90;99.90
3268;DHT22;1646;52.450;13.326;2022-08-19T12:32:53;24.80;99.90
3268;DHT22;1646;52.450;13.326;2022-08-19T12:37:54;24.70;99.90
3268;DHT22;1646;52.450;13.326;2022-08-19T12:42:53;24.60;99.90
3268;DHT22;1646;52.450;13.326;2022-08-19T12:47:51;24.60;99.90
3268;DHT22;1646;52.450;13.326;2022-08-19T12:52:51;24.60;99.90
3268;DHT22;1646;52.450;13.326;2022-08-19T12:57:50;24.80;99.90
3268;DHT22;1646;52.450;13.326;2022-08-19T13:02:51;24.90;99.90
3268;DHT22;1646;52.450;13.326;2022-08-19T13:07:51;25.00;99.90
3268;DHT22;1646;52.450;13.326;2022-08-19T13:12:54;25.10;99.90
3268;DHT22;1646;52.450;13.326;2022-08-19T13:17:54;25.20;99.90
3268;DHT22;1646;52.450;13.326;2022-08-19T13:22:54;25.30;99.90
3268;DHT22;1646;52.450;13.326;2022-08-19T13:27:55;25.00;99.90
3268;DHT22;1646;52.450;13.326;2022-08-19T13:32:53;25.00;99.90
3268;DHT22;1646;52.450;13.326;2022-08-19T13:38:13;25.00;99.90
3268;DHT22;1646;52.450;13.326;2022-08-19T13:43:13;25.00;99.90
3268;DHT22;1646;52.450;13.326;2022-08-19T13:48:18;25.00;99.90
3268;DHT22;1646;52.450;13.326;2022-08-19T13:53:17;25.20;99.90
3268;DHT22;1646;52.450;13.326;2022-08-19T13:58:16;25.50;99.90
3268;DHT22;1646;52.450;13.326;2022-08-19T14:03:14;25.80;99.90
3268;DHT22;1646;52.450;13.326;2022-08-19T14:08:13;26.00;99.90
3268;DHT22;1646;52.450;13.326;2022-08-19T14:13:14;26.20;99.90
3268;DHT22;1646;52.450;13.326;2022-08-19T14:18:14;26.10;99.90
3268;DHT22;1646;52.450;13.326;2022-08-19T14:23:12;26.00;99.90
3268;DHT22;1646;52.450;13.326;2022-08-19T14:28:10;25.80;99.90
3268;DHT22;1646;52.450;13.326;2022-08-19T14:33:08;25.70;99.90
3268;DHT22;1646;52.450;13.326;2022-08-19T14:38:15;25.70;99.90
3268;DHT22;1646;52.450;13.326;2022-08-19T14:43:20;25.60;99.90
3268;DHT22;1646;52.450;13.326;2022-08-19T14:48:18;25.50;99.90
3268;DHT22;1646;52.450;13.326;2022-08-19T14:53:26;25.40;99.90
3268;DHT22;1646;52.450;13.326;2022-08-19T14:58:24;25.30;99.90
3268;DHT22;1646;52.450;13.326;2022-08-19T15:03:26;25.20;99.90
3268;DHT22;1646;52.450;13.326;2022-08-19T15:08:26;25.10;99.90
3268;DHT22;1646;52.450;13.326;2022-08-19T15:13:27;25.00;99.90
3268;DHT22;1646;52.450;13.326;2022-08-19T15:18:25;24.80;99.90
3268;DHT22;1646;52.450;13.326;2022-08-19T15:23:23;24.50;99.90
3268;DHT22;1646;52.450;13.326;2022-08-19T15:28:24;24.30;99.90
3268;DHT22;1646;52.450;13.326;2022-08-19T15:33:22;24.10;99.90
3268;DHT22;1646;52.450;13.326;2022-08-19T15:38:20;23.90;99.90
3268;DHT22;1646;52.450;13.326;2022-08-19T15:43:19;23.80;99.90
3268;DHT22;1646;52.450;13.326;2022-08-19T15:48:20;23.70;99.90
3268;DHT22;1646;52.450;13.326;2022-08-19T15:53:18;23.70;99.90
3268;DHT22;1646;52.450;13.326;2022-08-19T15:58:16;23.80;99.90
3268;DHT22;1646;52.450;13.326;2022-08-19T16:03:33;23.70;99.90
3268;DHT22;1646;52.450;13.326;2022-08-19T16:08:49;23.80;99.90
3268;DHT22;1646;52.450;13.326;2022-08-19T16:13:47;23.90;99.90
3268;DHT22;1646;52.450;13.326;2022-08-19T16:18:49;24.10;99.90
3268;DHT22;1646;52.450;13.326;2022-08-19T16:23:49;24.30;99.90
3268;DHT22;1646;52.450;13.326;2022-08-19T16:28:47;24.40;99.90
3268;DHT22;1646;52.450;13.326;2022-08-19T16:33:48;24.30;99.90
3268;DHT22;1646;52.450;13.326;2022-08-19T16:38:47;24.10;99.90
3268;DHT22;1646;52.450;13.326;2022-08-19T16:43:45;24.00;99.90
3268;DHT22;1646;52.450;13.326;2022-08-19T16:48:45;23.80;99.90
3268;DHT22;1646;52.450;13.326;2022-08-19T16:53:44;23.60;99.90
3268;DHT22;1646;52.450;13.326;2022-08-19T16:58:42;23.50;99.90
3268;DHT22;1646;52.450;13.326;2022-08-19T17:03:41;23.40;99.90
3268;DHT22;1646;52.450;13.326;2022-08-19T17:08:39;23.40;99.90
3268;DHT22;1646;52.450;13.326;2022-08-19T17:13:43;23.40;99.90
3268;DHT22;1646;52.450;13.326;2022-08-19T17:18:43;23.40;99.90
3268;DHT22;1646;52.450;13.326;2022-08-19T17:23:41;23.40;99.90
3268;DHT22;1646;52.450;13.326;2022-08-19T17:28:40;23.30;99.90
3268;DHT22;1646;52.450;13.326;2022-08-19T17:33:40;23.30;99.90
3268;DHT22;1646;52.450;13.326;2022-08-19T17:38:38;23.30;99.90
3268;DHT22;1646;52.450;13.326;2022-08-19T17:43:36;23.40;99.90
3268;DHT22;1646;52.450;13.326;2022-08-19T17:48:40;23.40;99.90
3268;DHT22;1646;52.450;13.326;2022-08-19T17:53:39;23.30;99.90
3268;DHT22;1646;52.450;13.326;2022-08-19T17:58:37;23.30;99.90
3268;DHT22;1646;52.450;13.326;2022-08-19T18:03:40;23.50;99.90
3268;DHT22;1646;52.450;13.326;2022-08-19T18:08:38;23.40;99.90
3268;DHT22;1646;52.450;13.326;2022-08-19T18:13:36;23.30;99.90
3268;DHT22;1646;52.450;13.326;2022-08-19T18:18:36;23.30;99.90
3268;DHT22;1646;52.450;13.326;2022-08-19T18:23:37;23.30;99.90
3268;DHT22;1646;52.450;13.326;2022-08-19T18:28:41;23.30;99.90
3268;DHT22;1646;52.450;13.326;2022-08-19T18:33:46;23.20;99.90
3268;DHT22;1646;52.450;13.326;2022-08-19T18:38:49;23.20;99.90
3268;DHT22;1646;52.450;13.326;2022-08-19T18:44:05;23.20;99.90
3268;DHT22;1646;52.450;13.326;2022-08-19T18:49:26;23.10;99.90
3268;DHT22;1646;52.450;13.326;2022-08-19T18:54:26;23.00;99.90
3268;DHT22;1646;52.450;13.326;2022-08-19T18:59:25;23.00;99.90
3268;DHT22;1646;52.450;13.326;2022-08-19T19:04:27;23.00;99.90
3268;DHT22;1646;52.450;13.326;2022-08-19T19:09:27;22.90;99.90
3268;DHT22;1646;52.450;13.326;2022-08-19T19:14:27;22.80;99.90
3268;DHT22;1646;52.450;13.326;2022-08-19T19:19:45;22.70;99.90
3268;DHT22;1646;52.450;13.326;2022-08-19T19:24:45;22.70;99.90
3268;DHT22;1646;52.450;13.326;2022-08-19T19:29:47;22.60;99.90
3268;DHT22;1646;52.450;13.326;2022-08-19T19:34:48;22.60;99.90
3268;DHT22;1646;52.450;13.326;2022-08-19T19:39:48;22.70;99.90
3268;DHT22;1646;52.450;13.326;2022-08-19T19:44:46;22.70;99.90
3268;DHT22;1646;52.450;13.326;2022-08-19T19:49:47;22.70;99.90
3268;DHT22;1646;52.450;13.326;2022-08-19T19:55:08;22.70;99.90
3268;DHT22;1646;52.450;13.326;2022-08-19T20:00:15;22.70;99.90
3268;DHT22;1646;52.450;13.326;2022-08-19T20:05:14;22.70;99.90
3268;DHT22;1646;52.450;13.326;2022-08-19T20:10:14;22.80;99.90
3268;DHT22;1646;52.450;13.326;2022-08-19T20:15:12;22.80;99.90
3268;DHT22;1646;52.450;13.326;2022-08-19T20:20:12;22.80;99.90
3268;DHT22;1646;52.450;13.326;2022-08-19T20:25:12;22.90;99.90
3268;DHT22;1646;52.450;13.326;2022-08-19T20:30:14;22.80;99.90
3268;DHT22;1646;52.450;13.326;2022-08-19T20:35:18;22.90;99.90
3268;DHT22;1646;52.450;13.326;2022-08-19T20:40:17;22.80;99.90
3268;DHT22;1646;52.450;13.326;2022-08-19T20:45:20;22.70;99.90
3268;DHT22;1646;52.450;13.326;2022-08-19T20:50:29;22.70;99.90
3268;DHT22;1646;52.450;13.326;2022-08-19T20:55:27;22.70;99.90
3268;DHT22;1646;52.450;13.326;2022-08-19T21:00:27;22.60;99.90
3268;DHT22;1646;52.450;13.326;2022-08-19T21:05:26;22.60;99.90
3268;DHT22;1646;52.450;13.326;2022-08-19T21:10:26;22.60;99.90
3268;DHT22;1646;52.450;13.326;2022-08-19T21:15:24;22.60;99.90
3268;DHT22;1646;52.450;13.326;2022-08-19T21:20:24;22.60;99.90
3268;DHT22;1646;52.450;13.326;2022-08-19T21:25:22;22.70;99.90
3268;DHT22;1646;52.450;13.326;2022-08-19T21:30:20;22.70;99.90
3268;DHT22;1646;52.450;13.326;2022-08-19T21:35:19;22.60;99.90
3268;DHT22;1646;52.450;13.326;2022-08-19T21:40:19;22.60;99.90
3268;DHT22;1646;52.450;13.326;2022-08-19T21:45:18;22.60;99.90
3268;DHT22;1646;52.450;13.326;2022-08-19T21:50:17;22.60;99.90
3268;DHT22;1646;52.450;13.326;2022-08-19T21:55:15;22.60;99.90
3268;DHT22;1646;52.450;13.326;2022-08-19T22:00:18;22.60;99.90
3268;DHT22;1646;52.450;13.326;2022-08-19T22:05:17;22.50;99.90
3268;DHT22;1646;52.450;13.326;2022-08-19T22:10:19;22.50;99.90
3268;DHT22;1646;52.450;13.326;2022-08-19T22:15:19;22.60;99.90
3268;DHT22;1646;52.450;13.326;2022-08-19T22:20:20;22.60;99.90
3268;DHT22;1646;52.450;13.326;2022-08-19T22:25:21;22.50;99.90
3268;DHT22;1646;52.450;13.326;2022-08-19T22:30:30;22.40;99.90
3268;DHT22;1646;52.450;13.326;2022-08-19T22:35:31;22.40;99.90
3268;DHT22;1646;52.450;13.326;2022-08-19T22:40:30;22.30;99.90
3268;DHT22;1646;52.450;13.326;2022-08-19T22:45:30;22.30;99.90
3268;DHT22;1646;52.450;13.326;2022-08-19T22:50:29;22.20;99.90
3268;DHT22;1646;52.450;13.326;2022-08-19T22:55:28;22.10;99.90
3268;DHT22;1646;52.450;13.326;2022-08-19T23:00:29;22.10;99.90
3268;DHT22;1646;52.450;13.326;2022-08-19T23:05:28;22.20;99.90
3268;DHT22;1646;52.450;13.326;2022-08-19T23:10:26;22.20;99.90
3268;DHT22;1646;52.450;13.326;2022-08-19T23:15:27;22.20;99.90
3268;DHT22;1646;52.450;13.326;2022-08-19T23:20:30;22.20;99.90
3268;DHT22;1646;52.450;13.326;2022-08-19T23:25:30;22.30;99.90
3268;DHT22;1646;52.450;13.326;2022-08-19T23:30:31;22.30;99.90
3268;DHT22;1646;52.450;13.326;2022-08-19T23:35:35;22.20;99.90
3268;DHT22;1646;52.450;13.326;2022-08-19T23:40:35;22.20;99.90
3268;DHT22;1646;52.450;13.326;2022-08-19T23:45:36;22.20;99.90
3268;DHT22;1646;52.450;13.326;2022-08-19T23:50:38;22.30;99.90
3268;DHT22;1646;52.450;13.326;2022-08-19T23:55:38;22.30;99.90
